Time;durP1;ratioP1;P1;durP2;ratioP2;P2;SDS_P1;SDS_P2;PMS_P1;PMS_P2;Temp;Humidity;BMP_temperature;BMP_pressure;BME280_temperature;BME280_humidity;BME280_pressure;Samples;Min_cycle;Max_cycle;Signal;HPM_P1;HPM_P2
2023/01/25 00:00:41;;;;;;;25.10;17.63;;;1.40;88.50;;;;;;5013540;28;20034;-48
2023/01/25 00:03:09;;;;;;;25.17;17.15;;;1.40;88.70;;;;;;5012750;28;20030;-46
2023/01/25 00:05:37;;;;;;;24.85;17.10;;;1.40;88.40;;;;;;5012961;28;20049;-45
2023/01/25 00:08:03;;;;;;;25.10;17.77;;;1.40;88.40;;;;;;5013053;28;20081;-46
2023/01/25 00:10:30;;;;;;;28.92;18.90;;;1.30;88.40;;;;;;5013588;28;20124;-46
2023/01/25 00:12:57;;;;;;;25.50;17.05;;;1.30;88.50;;;;;;5030928;28;20025;-47
2023/01/25 00:15:23;;;;;;;25.42;18.48;;;1.20;88.70;;;;;;5033351;28;20450;-46
2023/01/25 00:17:51;;;;;;;25.42;17.60;;;1.20;88.70;;;;;;5032827;28;20030;-49
2023/01/25 00:20:18;;;;;;;26.63;18.65;;;1.20;89.00;;;;;;5013383;28;20466;-46
2023/01/25 00:22:43;;;;;;;25.33;17.20;;;1.30;88.80;;;;;;5013395;28;20109;-45
2023/01/25 00:25:10;;;;;;;26.88;17.73;;;1.20;88.70;;;;;;5013289;28;20126;-46
2023/01/25 00:27:36;;;;;;;25.90;18.02;;;1.20;88.80;;;;;;5012251;28;20041;-47
2023/01/25 00:30:03;;;;;;;25.77;17.77;;;1.20;88.80;;;;;;5013482;28;20033;-46
2023/01/25 00:32:46;;;;;;;28.15;20.77;;;1.20;89.00;;;;;;5013408;28;20026;-46
2023/01/25 00:35:14;;;;;;;26.55;18.20;;;1.30;89.00;;;;;;5012273;28;20428;-46
2023/01/25 00:37:43;;;;;;;25.45;17.42;;;1.20;88.80;;;;;;4995706;28;20039;-48
2023/01/25 00:40:11;;;;;;;27.88;17.45;;;1.20;89.00;;;;;;5013253;28;20063;-46
2023/01/25 00:42:37;;;;;;;27.02;17.58;;;1.20;88.90;;;;;;4980710;28;20034;-46
2023/01/25 00:45:05;;;;;;;24.35;16.00;;;1.20;89.00;;;;;;5014561;28;20036;-46
2023/01/25 00:47:32;;;;;;;24.95;18.02;;;1.20;89.10;;;;;;5016344;28;20111;-46
2023/01/25 00:49:59;;;;;;;24.33;17.70;;;1.20;89.20;;;;;;5016808;28;20022;-46
2023/01/25 00:52:27;;;;;;;27.55;17.95;;;1.20;89.20;;;;;;5016656;28;20045;-46
2023/01/25 00:55:16;;;;;;;30.45;19.75;;;1.10;89.10;;;;;;5017255;28;20026;-45
2023/01/25 00:57:43;;;;;;;26.58;18.25;;;1.20;89.30;;;;;;5036322;28;20029;-46
2023/01/25 01:00:10;;;;;;;26.65;17.65;;;1.20;89.40;;;;;;5019207;28;20037;-46
2023/01/25 01:02:37;;;;;;;26.10;17.75;;;1.20;89.30;;;;;;5021322;28;20029;-45
2023/01/25 01:05:04;;;;;;;27.30;18.35;;;1.20;89.20;;;;;;5036374;28;20033;-46
2023/01/25 01:07:31;;;;;;;29.25;18.60;;;1.30;89.10;;;;;;5034739;28;20045;-46
2023/01/25 01:09:59;;;;;;;26.88;17.90;;;1.20;88.80;;;;;;5020176;28;20096;-46
2023/01/25 01:12:25;;;;;;;26.05;17.67;;;1.20;89.10;;;;;;5016644;28;20030;-46
2023/01/25 01:14:52;;;;;;;25.13;16.80;;;1.20;89.20;;;;;;5016145;28;20355;-46
2023/01/25 01:17:20;;;;;;;24.33;16.40;;;1.20;89.20;;;;;;5016385;28;20030;-46
2023/01/25 01:19:47;;;;;;;27.80;18.65;;;1.10;89.10;;;;;;5016712;28;20022;-47
2023/01/25 01:22:14;;;;;;;28.15;18.80;;;1.10;89.20;;;;;;5015708;28;20025;-46
2023/01/25 01:24:40;;;;;;;26.80;17.98;;;1.10;89.40;;;;;;5016407;28;20030;-47
2023/01/25 01:27:09;;;;;;;25.50;16.73;;;1.10;89.50;;;;;;5016613;28;20049;-46
2023/01/25 01:29:35;;;;;;;27.52;19.25;;;1.20;89.40;;;;;;5015116;28;20364;-46
2023/01/25 01:32:01;;;;;;;28.42;19.23;;;1.10;89.30;;;;;;5016305;28;20029;-46
2023/01/25 01:34:28;;;;;;;24.98;17.63;;;1.10;89.20;;;;;;5015809;28;20105;-46
2023/01/25 01:36:54;;;;;;;26.42;17.25;;;1.00;89.20;;;;;;5016094;28;20022;-46
2023/01/25 01:39:21;;;;;;;28.27;18.25;;;1.00;89.50;;;;;;5016204;28;20037;-47
2023/01/25 01:41:47;;;;;;;30.15;19.40;;;1.00;89.50;;;;;;5016352;28;20036;-45
2023/01/25 01:44:42;;;;;;;28.55;18.52;;;1.00;89.20;;;;;;5015156;28;20044;-46
2023/01/25 01:47:17;;;;;;;27.13;18.83;;;0.90;89.10;;;;;;5015040;28;20662;-46
2023/01/25 01:49:50;;;;;;;24.75;18.20;;;0.90;89.20;;;;;;4999162;28;20505;-46
2023/01/25 01:52:19;;;;;;;28.08;19.27;;;0.90;89.40;;;;;;4999255;28;20041;-47
2023/01/25 01:55:16;;;;;;;25.67;17.53;;;0.90;89.40;;;;;;5015772;28;20026;-48
2023/01/25 01:57:47;;;;;;;27.75;18.85;;;0.80;89.30;;;;;;5015428;28;20343;-46
2023/01/25 02:00:26;;;;;;;28.98;19.85;;;0.70;89.30;;;;;;5002928;28;20428;-46
2023/01/25 02:02:53;;;;;;;29.33;19.45;;;0.80;89.90;;;;;;5014829;28;20440;-47
2023/01/25 02:05:43;;;;;;;30.38;20.52;;;0.80;89.70;;;;;;5015656;28;20494;-46
2023/01/25 02:08:13;;;;;;;30.42;19.85;;;0.70;89.60;;;;;;5015338;28;20080;-46
2023/01/25 02:10:43;;;;;;;31.60;21.73;;;0.70;90.00;;;;;;4998426;28;20112;-46
2023/01/25 02:13:09;;;;;;;27.27;18.55;;;0.70;89.90;;;;;;5014577;28;20038;-46
2023/01/25 02:15:46;;;;;;;31.50;21.13;;;0.80;90.10;;;;;;5030870;28;20128;-46
2023/01/25 02:18:14;;;;;;;29.70;19.35;;;0.70;89.80;;;;;;5015342;28;20033;-45
2023/01/25 02:20:59;;;;;;;31.83;19.77;;;0.70;89.80;;;;;;5015552;28;20030;-46
2023/01/25 02:23:34;;;;;;;34.90;21.42;;;0.70;90.10;;;;;;5015407;28;20053;-45
2023/01/25 02:26:04;;;;;;;33.67;21.60;;;0.70;90.20;;;;;;5015003;28;20037;-46
2023/01/25 02:28:49;;;;;;;34.50;21.05;;;0.80;90.10;;;;;;5014241;28;20034;-47
2023/01/25 02:31:16;;;;;;;33.50;21.45;;;0.70;89.90;;;;;;5016186;28;20033;-45
2023/01/25 02:33:44;;;;;;;33.28;21.55;;;0.70;90.00;;;;;;5014676;28;20030;-45
2023/01/25 02:36:40;;;;;;;36.13;22.35;;;0.70;90.00;;;;;;5025395;28;20036;-47
2023/01/25 02:39:14;;;;;;;41.67;23.88;;;0.70;90.00;;;;;;5033697;28;20037;-46
2023/01/25 02:41:51;;;;;;;33.30;20.52;;;0.60;90.10;;;;;;5017496;28;20029;-46
2023/01/25 02:44:26;;;;;;;33.33;21.98;;;0.50;90.00;;;;;;5029279;28;20041;-45
2023/01/25 02:46:54;;;;;;;33.58;20.83;;;0.60;90.30;;;;;;5015107;28;20160;-46
2023/01/25 02:49:21;;;;;;;37.05;22.45;;;0.60;90.10;;;;;;5015058;28;20065;-46
2023/01/25 02:51:51;;;;;;;39.90;24.50;;;0.60;90.20;;;;;;5014998;28;20022;-45
2023/01/25 02:54:18;;;;;;;36.40;23.20;;;0.60;90.20;;;;;;5013523;28;20320;-46
2023/01/25 02:56:44;;;;;;;44.45;27.23;;;0.60;90.40;;;;;;5014055;28;20029;-46
2023/01/25 02:59:12;;;;;;;42.83;27.67;;;0.60;90.40;;;;;;5013217;28;20041;-46
2023/01/25 03:01:45;;;;;;;43.42;26.80;;;0.60;90.40;;;;;;5014596;28;20065;-46
2023/01/25 03:04:12;;;;;;;45.35;27.52;;;0.60;90.30;;;;;;5014778;28;20030;-46
2023/01/25 03:06:39;;;;;;;49.13;29.27;;;0.50;90.20;;;;;;5022497;28;20049;-46
2023/01/25 03:09:07;;;;;;;43.72;27.00;;;0.50;90.10;;;;;;5033272;28;20351;-47
2023/01/25 03:11:33;;;;;;;49.45;27.67;;;0.40;90.10;;;;;;5032230;28;20026;-45
2023/01/25 03:14:01;;;;;;;45.17;26.17;;;0.40;90.20;;;;;;5031886;28;20035;-46
2023/01/25 03:16:29;;;;;;;40.50;24.05;;;0.40;90.30;;;;;;5034141;28;20026;-46
2023/01/25 03:18:56;;;;;;;41.45;28.20;;;0.40;90.30;;;;;;5034270;28;20072;-46
2023/01/25 03:21:24;;;;;;;48.92;27.05;;;0.40;90.20;;;;;;5018602;28;20136;-46
2023/01/25 03:23:57;;;;;;;46.88;27.00;;;0.40;90.20;;;;;;5013420;28;20038;-46
2023/01/25 03:26:25;;;;;;;41.42;24.92;;;0.40;90.20;;;;;;5013427;28;20034;-46
2023/01/25 03:28:52;;;;;;;47.55;27.65;;;0.40;90.30;;;;;;5013679;28;20136;-47
2023/01/25 03:31:18;;;;;;;45.45;28.60;;;0.40;90.30;;;;;;5014116;28;20043;-46
2023/01/25 03:33:44;;;;;;;43.28;27.23;;;0.40;90.20;;;;;;4996671;28;20060;-45
2023/01/25 03:36:10;;;;;;;44.95;26.63;;;0.30;90.10;;;;;;5013244;28;20217;-46
2023/01/25 03:38:39;;;;;;;43.78;27.08;;;0.30;90.20;;;;;;5012959;28;20427;-47
2023/01/25 03:41:06;;;;;;;48.13;28.27;;;0.30;90.30;;;;;;5013751;28;20033;-45
2023/01/25 03:43:32;;;;;;;48.97;28.15;;;0.30;90.40;;;;;;5013761;28;20117;-45
2023/01/25 03:46:03;;;;;;;47.42;28.65;;;0.30;90.40;;;;;;5029555;28;20113;-46
2023/01/25 03:48:33;;;;;;;47.95;28.95;;;0.30;90.60;;;;;;5013134;28;20038;-46
2023/01/25 03:51:00;;;;;;;46.95;27.90;;;0.40;90.50;;;;;;5012876;28;20034;-45
2023/01/25 03:53:30;;;;;;;44.08;27.25;;;0.40;90.70;;;;;;5013680;28;20029;-46
2023/01/25 03:56:19;;;;;;;47.30;28.45;;;0.40;90.50;;;;;;5017020;28;20026;-46
2023/01/25 03:58:47;;;;;;;47.97;28.83;;;0.40;90.60;;;;;;5027578;28;20042;-46
2023/01/25 04:01:14;;;;;;;47.67;30.73;;;0.40;90.70;;;;;;5012706;28;20041;-47
2023/01/25 04:03:41;;;;;;;46.92;28.25;;;0.40;90.40;;;;;;5013425;28;20045;-47
2023/01/25 04:06:08;;;;;;;42.72;26.45;;;0.40;90.40;;;;;;5012045;28;20057;-46
2023/01/25 04:08:38;;;;;;;43.78;28.60;;;0.40;90.10;;;;;;5013695;28;20022;-46
2023/01/25 04:11:11;;;;;;;40.83;26.85;;;0.30;90.10;;;;;;5013358;28;20033;-46
2023/01/25 04:13:38;;;;;;;40.92;26.55;;;0.30;90.00;;;;;;5013320;28;20056;-46
2023/01/25 04:16:07;;;;;;;48.60;28.52;;;0.30;90.20;;;;;;5013447;28;20026;-45
2023/01/25 04:18:33;;;;;;;39.22;26.13;;;0.30;90.00;;;;;;5012007;28;20149;-46
2023/01/25 04:21:03;;;;;;;41.60;26.08;;;0.30;89.70;;;;;;5013382;28;20511;-46
2023/01/25 04:23:29;;;;;;;41.95;24.83;;;0.20;89.80;;;;;;5013500;28;20034;-46
2023/01/25 04:26:04;;;;;;;37.92;24.60;;;0.20;89.40;;;;;;5012218;28;20049;-45
2023/01/25 04:28:33;;;;;;;41.80;25.23;;;0.20;89.60;;;;;;5012899;28;20041;-45
2023/01/25 04:31:02;;;;;;;39.53;24.98;;;0.10;89.50;;;;;;5012143;28;20053;-46
2023/01/25 04:33:29;;;;;;;;;;;0.20;89.60;;;;;;5013835;28;20038;-47
2023/01/25 04:35:55;;;;;;;40.35;26.13;;;0.20;89.50;;;;;;5012174;28;19916;-46
2023/01/25 04:38:25;;;;;;;43.67;27.65;;;0.20;89.60;;;;;;5013483;28;20105;-45
2023/01/25 04:40:51;;;;;;;39.50;23.98;;;0.10;89.50;;;;;;5012387;28;20026;-47
2023/01/25 04:43:20;;;;;;;39.88;25.05;;;0.10;89.60;;;;;;5012008;28;20095;-46
2023/01/25 04:45:46;;;;;;;39.90;25.25;;;0.10;89.30;;;;;;5012069;28;20096;-45
2023/01/25 04:48:15;;;;;;;41.20;25.23;;;0.10;89.50;;;;;;5013200;28;20046;-46
2023/01/25 04:50:42;;;;;;;42.60;27.67;;;0.00;89.50;;;;;;5013327;28;20050;-46
2023/01/25 04:53:10;;;;;;;38.15;24.00;;;0.00;89.60;;;;;;5012998;28;20026;-46
2023/01/25 04:55:46;;;;;;;41.33;27.00;;;0.00;89.60;;;;;;5012149;28;20030;-46
2023/01/25 04:58:12;;;;;;;40.47;26.15;;;0.00;89.40;;;;;;5012838;28;20021;-47
2023/01/25 05:00:39;;;;;;;41.60;26.70;;;0.00;89.70;;;;;;4995594;28;20096;-46
2023/01/25 05:03:06;;;;;;;42.55;26.60;;;0.00;89.30;;;;;;5013160;28;20396;-46
2023/01/25 05:05:33;;;;;;;40.22;25.60;;;0.00;89.50;;;;;;5013089;28;20033;-46
2023/01/25 05:08:01;;;;;;;39.47;25.92;;;0.00;89.40;;;;;;5011935;28;20072;-46
2023/01/25 05:10:28;;;;;;;38.97;26.10;;;-3276.70;89.20;;;;;;5012001;28;20015;-46
2023/01/25 05:12:54;;;;;;;39.92;27.05;;;-3276.70;89.50;;;;;;5012411;28;20026;-46
2023/01/25 05:15:24;;;;;;;40.05;27.50;;;0.00;89.50;;;;;;5011653;28;20428;-46
2023/01/25 05:17:52;;;;;;;42.47;25.58;;;0.00;89.50;;;;;;5013328;28;20049;-47
2023/01/25 05:20:18;;;;;;;41.60;25.60;;;0.00;89.50;;;;;;5011958;28;20072;-47
2023/01/25 05:22:44;;;;;;;42.63;26.92;;;0.00;89.40;;;;;;5023203;28;20033;-46
2023/01/25 05:26:59;;;;;;;41.33;25.38;;;0.00;89.60;;;;;;5026889;28;20049;-46
2023/01/25 05:27:57;;;;;;;38.25;23.98;;;0.00;89.40;;;;;;5011929;28;20088;-46
2023/01/25 05:30:23;;;;;;;41.05;27.45;;;0.00;89.50;;;;;;5013844;28;20022;-46
2023/01/25 05:32:51;;;;;;;36.83;23.77;;;0.00;89.30;;;;;;5016177;28;20029;-46
2023/01/25 05:35:19;;;;;;;38.33;25.40;;;0.00;89.40;;;;;;5016071;28;20033;-46
2023/01/25 05:37:49;;;;;;;41.10;27.17;;;0.00;89.40;;;;;;5016156;28;20024;-45
2023/01/25 05:40:15;;;;;;;43.95;28.13;;;0.00;89.20;;;;;;5015401;28;20200;-47
2023/01/25 05:42:42;;;;;;;45.92;29.30;;;0.00;89.40;;;;;;5016091;28;20455;-46
2023/01/25 05:45:08;;;;;;;38.05;25.95;;;0.00;89.20;;;;;;5015966;28;20037;-45
2023/01/25 05:47:35;;;;;;;44.38;27.13;;;0.00;89.40;;;;;;5015932;28;20033;-46
2023/01/25 05:50:03;;;;;;;41.15;26.80;;;0.00;89.20;;;;;;5015142;28;20034;-46
2023/01/25 05:52:31;;;;;;;46.58;29.13;;;0.00;89.30;;;;;;5030780;28;20025;-45
2023/01/25 05:54:58;;;;;;;41.53;27.40;;;0.00;89.20;;;;;;5034534;28;20045;-46
2023/01/25 05:57:23;;;;;;;44.78;26.67;;;0.00;89.30;;;;;;5032637;28;20048;-47
2023/01/25 05:59:49;;;;;;;40.03;27.15;;;0.00;89.10;;;;;;5015948;28;20471;-45
2023/01/25 06:02:21;;;;;;;40.70;26.75;;;0.00;89.20;;;;;;5033505;28;20455;-46
2023/01/25 06:04:47;;;;;;;40.72;26.33;;;0.00;89.20;;;;;;5015984;28;20030;-46
2023/01/25 06:07:14;;;;;;;40.90;27.10;;;0.00;89.50;;;;;;5024703;28;20057;-46
2023/01/25 06:09:42;;;;;;;43.22;27.08;;;0.00;89.40;;;;;;5014261;28;20030;-46
2023/01/25 06:12:09;;;;;;;43.95;26.00;;;0.00;89.20;;;;;;5032575;28;20132;-47
2023/01/25 06:14:39;;;;;;;40.05;26.35;;;-3276.70;89.30;;;;;;5035435;28;20041;-47
2023/01/25 06:17:04;;;;;;;42.03;27.08;;;0.00;89.50;;;;;;5020932;28;20116;-46
2023/01/25 06:19:32;;;;;;;39.47;25.83;;;-3276.70;89.40;;;;;;5015744;28;20432;-46
2023/01/25 06:21:58;;;;;;;43.05;27.02;;;-3276.60;89.20;;;;;;5014954;28;20038;-46
2023/01/25 06:24:29;;;;;;;39.97;26.63;;;-3276.60;89.40;;;;;;5015684;28;20472;-46
2023/01/25 06:26:55;;;;;;;44.70;28.20;;;-3276.50;89.50;;;;;;5033026;28;20039;-46
2023/01/25 06:29:21;;;;;;;43.63;27.75;;;-3276.60;89.80;;;;;;5024070;28;20112;-46
2023/01/25 06:31:48;;;;;;;48.92;29.30;;;-3276.60;89.50;;;;;;5027643;28;20104;-46
2023/01/25 06:34:15;;;;;;;43.90;28.80;;;-3276.70;89.60;;;;;;5034462;28;20025;-47
2023/01/25 06:36:41;;;;;;;44.53;29.13;;;-3276.70;89.80;;;;;;5025581;28;21967;-46
2023/01/25 06:39:10;;;;;;;42.50;28.33;;;-3276.70;89.40;;;;;;5032551;28;20037;-46
2023/01/25 06:41:39;;;;;;;43.65;28.70;;;-3276.70;89.30;;;;;;5016207;28;20038;-47
2023/01/25 06:44:07;;;;;;;44.53;28.30;;;0.00;89.60;;;;;;5022912;28;20120;-46
2023/01/25 06:46:32;;;;;;;43.78;27.95;;;0.00;89.30;;;;;;5032230;28;20033;-46
2023/01/25 06:48:59;;;;;;;42.55;27.10;;;0.00;89.30;;;;;;5029958;28;20034;-46
2023/01/25 06:51:25;;;;;;;45.85;28.95;;;0.00;89.30;;;;;;5032506;28;20022;-47
2023/01/25 06:53:51;;;;;;;43.95;28.40;;;0.00;89.30;;;;;;5032982;28;20079;-48
2023/01/25 06:56:21;;;;;;;44.80;28.17;;;-3276.70;89.10;;;;;;5031069;28;20466;-45
2023/01/25 06:58:49;;;;;;;44.15;29.80;;;-3276.70;89.20;;;;;;5033720;28;20124;-46
2023/01/25 07:01:25;;;;;;;43.97;29.73;;;-3276.70;89.10;;;;;;5031699;28;20497;-45
2023/01/25 07:03:57;;;;;;;47.15;30.65;;;-3276.70;89.30;;;;;;5029955;28;20726;-46
2023/01/25 07:06:30;;;;;;;42.70;29.27;;;-3276.70;89.40;;;;;;5012846;28;20081;-46
2023/01/25 07:09:02;;;;;;;47.13;30.40;;;-3276.70;89.20;;;;;;5017101;28;20471;-46
2023/01/25 07:11:33;;;;;;;40.97;27.85;;;-3276.70;89.20;;;;;;5016980;28;20025;-46
2023/01/25 07:14:00;;;;;;;43.90;28.02;;;-3276.70;89.00;;;;;;5031063;28;20029;-46
2023/01/25 07:16:27;;;;;;;43.35;28.17;;;-3276.70;89.20;;;;;;5025744;28;20119;-46
2023/01/25 07:18:54;;;;;;;40.33;27.85;;;-3276.70;89.20;;;;;;5029646;28;20029;-46
2023/01/25 07:21:22;;;;;;;42.38;28.55;;;-3276.70;89.10;;;;;;5022823;28;20029;-46
2023/01/25 07:23:50;;;;;;;41.92;27.70;;;0.00;89.30;;;;;;5031618;28;20033;-46
2023/01/25 07:26:21;;;;;;;41.30;29.13;;;-3276.70;89.10;;;;;;5026563;28;20862;-45
2023/01/25 07:28:47;;;;;;;43.00;28.33;;;-3276.70;89.20;;;;;;5030697;28;20029;-46
2023/01/25 07:31:16;;;;;;;44.55;29.60;;;-3276.60;89.00;;;;;;5029748;28;20030;-46
2023/01/25 07:33:48;;;;;;;41.17;27.48;;;-3276.70;89.50;;;;;;5008771;28;20033;-46
2023/01/25 07:36:13;;;;;;;42.30;28.35;;;-3276.70;89.40;;;;;;5032541;28;20114;-45
2023/01/25 07:38:42;;;;;;;41.60;26.77;;;0.00;89.60;;;;;;5032520;28;20033;-45
2023/01/25 07:41:08;;;;;;;46.10;29.02;;;0.00;89.30;;;;;;5016768;28;20034;-46
2023/01/25 07:43:36;;;;;;;40.92;26.05;;;-3276.70;89.10;;;;;;5012536;28;20037;-47
2023/01/25 07:46:22;;;;;;;45.45;28.83;;;-3276.70;89.20;;;;;;5013824;28;20025;-46
2023/01/25 07:48:53;;;;;;;44.92;29.70;;;-3276.70;89.10;;;;;;4997586;28;20069;-45
2023/01/25 07:51:23;;;;;;;46.78;29.23;;;-3276.70;89.10;;;;;;5013418;28;20075;-46
2023/01/25 07:54:07;;;;;;;47.33;30.23;;;-3276.70;89.20;;;;;;5011979;28;20030;-48
2023/01/25 07:56:39;;;;;;;47.78;26.50;;;-3276.70;89.10;;;;;;5013552;28;20432;-46
2023/01/25 07:59:07;;;;;;;47.40;29.25;;;-3276.70;89.20;;;;;;5004466;28;20111;-48
2023/01/25 08:01:33;;;;;;;43.20;27.63;;;-3276.60;89.20;;;;;;5030497;28;20124;-47
2023/01/25 08:04:02;;;;;;;48.00;29.40;;;-3276.70;89.30;;;;;;5023687;28;20046;-46
2023/01/25 08:06:34;;;;;;;45.10;27.90;;;-3276.70;89.50;;;;;;5002316;28;20218;-46
2023/01/25 08:09:02;;;;;;;42.35;26.58;;;-3276.70;89.50;;;;;;5009277;28;20049;-47
2023/01/25 08:11:30;;;;;;;42.30;28.52;;;-3276.60;89.40;;;;;;5026260;28;20013;-49
2023/01/25 08:13:56;;;;;;;48.17;29.75;;;-3276.60;89.50;;;;;;5029832;28;20116;-46
2023/01/25 08:16:25;;;;;;;49.25;30.17;;;-3276.50;89.40;;;;;;5026347;28;20057;-48
2023/01/25 08:18:54;;;;;;;45.92;28.33;;;-3276.50;89.60;;;;;;5022455;28;20469;-46
2023/01/25 08:21:24;;;;;;;45.28;27.92;;;-3276.60;89.80;;;;;;5027052;28;20359;-46
2023/01/25 08:23:50;;;;;;;47.80;29.00;;;-3276.50;89.80;;;;;;5029995;28;20466;-47
2023/01/25 08:26:19;;;;;;;47.17;29.45;;;-3276.60;89.90;;;;;;5026914;28;20038;-47
2023/01/25 08:28:46;;;;;;;46.95;28.75;;;-3276.60;89.90;;;;;;5030319;28;20034;-47
2023/01/25 08:31:18;;;;;;;52.47;31.75;;;-3276.70;90.00;;;;;;5027239;28;20034;-48
2023/01/25 08:33:45;;;;;;;54.65;32.50;;;-3276.70;89.90;;;;;;5028510;28;20025;-45
2023/01/25 08:36:15;;;;;;;54.33;31.90;;;-3276.70;89.90;;;;;;5028062;28;20061;-45
2023/01/25 08:38:41;;;;;;;49.97;32.13;;;0.00;89.90;;;;;;5020683;28;20052;-46
2023/01/25 08:41:26;;;;;;;49.80;30.60;;;0.00;89.90;;;;;;5031886;28;20034;-45
2023/01/25 08:43:57;;;;;;;50.88;31.15;;;0.00;89.80;;;;;;5025834;28;20525;-45
2023/01/25 08:46:30;;;;;;;52.35;31.20;;;0.00;89.80;;;;;;5023696;28;20033;-46
2023/01/25 08:48:58;;;;;;;52.38;32.35;;;0.00;89.80;;;;;;5030594;28;20367;-46
2023/01/25 08:51:24;;;;;;;51.90;32.25;;;0.00;89.80;;;;;;5030876;28;20030;-48
2023/01/25 08:53:50;;;;;;;52.80;33.88;;;0.00;89.60;;;;;;5029547;28;20474;-47
2023/01/25 08:56:18;;;;;;;50.33;32.20;;;0.00;89.60;;;;;;5031011;28;20033;-46
2023/01/25 08:58:45;;;;;;;44.80;29.60;;;0.00;89.40;;;;;;5014021;28;20026;-47
2023/01/25 09:01:14;;;;;;;50.72;31.08;;;0.00;89.60;;;;;;5025068;28;20068;-47
2023/01/25 09:03:48;;;;;;;48.27;31.23;;;0.00;89.70;;;;;;5013299;28;20053;-47
2023/01/25 09:06:17;;;;;;;51.03;31.25;;;0.00;89.60;;;;;;5033783;28;20035;-47
2023/01/25 09:08:43;;;;;;;49.95;30.70;;;0.00;89.70;;;;;;5024774;28;20084;-46
2023/01/25 09:11:20;;;;;;;40.85;26.33;;;0.00;89.70;;;;;;5034281;28;20510;-46
2023/01/25 09:13:48;;;;;;;43.17;26.15;;;-3276.70;89.70;;;;;;5019165;28;20085;-49
2023/01/25 09:16:26;;;;;;;42.75;25.80;;;-3276.70;89.70;;;;;;5032860;28;20022;-45
2023/01/25 09:18:57;;;;;;;42.70;25.98;;;-3276.70;89.80;;;;;;5015117;28;20092;-46
2023/01/25 09:21:23;;;;;;;41.67;26.35;;;-3276.70;89.80;;;;;;5033630;28;20128;-48
2023/01/25 09:23:51;;;;;;;46.45;28.95;;;-3276.70;89.90;;;;;;5033815;28;20037;-49
2023/01/25 09:26:19;;;;;;;45.08;27.90;;;-3276.60;89.70;;;;;;5024630;28;20030;-46
2023/01/25 09:28:53;;;;;;;46.72;28.65;;;-3276.60;90.00;;;;;;5030919;28;20435;-45
2023/01/25 09:31:23;;;;;;;48.28;29.38;;;-3276.60;90.00;;;;;;5033043;28;20037;-48
2023/01/25 09:33:51;;;;;;;44.58;27.25;;;-3276.60;90.00;;;;;;5032612;28;20474;-49
2023/01/25 09:36:19;;;;;;;47.88;27.92;;;-3276.60;90.00;;;;;;5024613;28;20083;-46
2023/01/25 09:38:45;;;;;;;44.17;28.73;;;-3276.70;90.30;;;;;;5033847;28;20358;-45
2023/01/25 09:41:13;;;;;;;46.47;30.10;;;0.00;90.20;;;;;;5034781;28;20025;-50
2023/01/25 09:44:03;;;;;;;47.78;30.95;;;-3276.70;90.00;;;;;;5020928;28;20041;-47
2023/01/25 09:46:59;;;;;;;47.17;29.88;;;0.00;90.10;;;;;;5034991;28;20025;-46
2023/01/25 09:49:50;;;;;;;42.58;27.67;;;-3276.70;89.90;;;;;;5022759;28;20037;-46
2023/01/25 09:52:43;;;;;;;48.10;29.65;;;0.00;90.10;;;;;;5021722;28;20167;-49
2023/01/25 09:55:17;;;;;;;46.85;29.38;;;0.00;90.00;;;;;;5031866;28;20056;-45
2023/01/25 09:57:46;;;;;;;45.30;26.48;;;0.00;90.10;;;;;;5001166;28;20044;-47
2023/01/25 10:00:27;;;;;;;51.45;31.33;;;0.00;90.20;;;;;;5034233;28;20135;-45
2023/01/25 10:03:17;;;;;;;50.80;30.13;;;0.00;90.20;;;;;;5025952;28;20057;-46
2023/01/25 10:05:46;;;;;;;45.83;29.35;;;0.00;90.00;;;;;;5022058;28;20037;-47
2023/01/25 10:08:43;;;;;;;47.50;29.30;;;0.00;89.60;;;;;;5033250;28;20102;-46
2023/01/25 10:11:30;;;;;;;47.47;29.52;;;0.00;89.90;;;;;;5029128;28;20034;-47
2023/01/25 10:14:01;;;;;;;48.45;29.08;;;0.00;90.00;;;;;;5030197;28;20026;-47
2023/01/25 10:16:45;;;;;;;49.75;30.10;;;0.00;90.00;;;;;;5033864;28;20521;-46
2023/01/25 10:19:21;;;;;;;43.72;27.13;;;0.00;89.90;;;;;;5025645;28;20041;-46
2023/01/25 10:22:11;;;;;;;48.05;30.73;;;0.00;89.90;;;;;;5034352;28;20030;-46
2023/01/25 10:25:14;;;;;;;47.83;29.35;;;0.00;89.90;;;;;;5034241;28;20029;-46
2023/01/25 10:27:59;;;;;;;47.42;28.98;;;0.00;89.90;;;;;;5031643;28;20037;-46
2023/01/25 10:30:51;;;;;;;51.28;30.48;;;0.00;90.10;;;;;;5033513;28;20030;-45
2023/01/25 10:33:19;;;;;;;47.25;28.90;;;0.00;90.00;;;;;;5032314;28;20402;-49
2023/01/25 10:35:48;;;;;;;51.40;30.60;;;0.00;89.90;;;;;;5015474;28;20037;-46
2023/01/25 10:38:20;;;;;;;45.63;28.15;;;0.00;89.90;;;;;;5032864;28;20048;-46
2023/01/25 10:40:54;;;;;;;54.17;30.95;;;0.00;89.80;;;;;;5033816;28;20355;-46
2023/01/25 10:43:20;;;;;;;46.80;29.33;;;0.00;89.70;;;;;;5013112;28;20060;-49
2023/01/25 10:45:47;;;;;;;49.75;29.55;;;0.00;89.90;;;;;;5016327;28;20053;-47
2023/01/25 10:48:31;;;;;;;44.60;28.50;;;0.00;89.50;;;;;;5026154;28;20371;-46
2023/01/25 10:50:58;;;;;;;47.85;30.13;;;0.10;89.80;;;;;;5032483;28;20076;-45
2023/01/25 10:53:57;;;;;;;49.13;28.73;;;0.10;90.00;;;;;;5030192;28;20025;-46
2023/01/25 10:56:25;;;;;;;44.85;27.15;;;0.10;90.00;;;;;;5027582;28;20037;-46
2023/01/25 10:59:04;;;;;;;47.83;29.05;;;0.00;89.80;;;;;;5015893;28;20362;-47
2023/01/25 11:01:34;;;;;;;41.97;26.77;;;0.00;89.80;;;;;;5026644;28;20037;-48
2023/01/25 11:04:02;;;;;;;45.25;28.75;;;0.00;89.60;;;;;;5031664;28;20041;-48
2023/01/25 11:06:46;;;;;;;47.65;28.17;;;0.00;90.00;;;;;;5026201;28;20033;-47
2023/01/25 11:09:32;;;;;;;46.55;28.80;;;0.00;90.00;;;;;;5022886;28;20683;-47
2023/01/25 11:12:14;;;;;;;43.10;27.63;;;0.00;90.10;;;;;;5029838;28;20444;-46
2023/01/25 11:14:40;;;;;;;47.60;28.58;;;0.00;90.00;;;;;;5030393;28;20068;-46
2023/01/25 11:17:38;;;;;;;47.85;28.73;;;0.00;89.80;;;;;;5025076;28;20443;-47
2023/01/25 11:20:24;;;;;;;46.65;27.13;;;0.00;90.00;;;;;;5020226;28;20041;-48
2023/01/25 11:22:54;;;;;;;50.92;30.45;;;0.00;90.00;;;;;;5029573;28;20030;-46
2023/01/25 11:25:32;;;;;;;48.92;26.75;;;0.00;90.10;;;;;;5019404;28;20048;-47
2023/01/25 11:28:23;;;;;;;46.47;28.40;;;0.00;89.90;;;;;;5016767;28;20033;-46
2023/01/25 11:30:53;;;;;;;50.30;27.90;;;0.00;90.00;;;;;;5030220;28;20029;-47
2023/01/25 11:33:19;;;;;;;;;;;0.30;90.30;;;;;;5025317;28;20030;-46
2023/01/25 11:36:28;;;;;;;47.60;27.92;;;0.40;90.40;;;;;;5029128;28;19970;-46
2023/01/25 11:39:15;;;;;;;50.85;30.52;;;0.30;89.60;;;;;;5001888;28;20042;-45
2023/01/25 11:42:25;;;;;;;50.78;29.85;;;0.30;89.50;;;;;;5026697;28;20030;-47
2023/01/25 11:45:27;;;;;;;56.20;31.42;;;0.20;89.30;;;;;;5026339;28;20067;-46
2023/01/25 11:48:30;;;;;;;54.85;30.70;;;0.10;89.20;;;;;;5011939;28;20112;-46
2023/01/25 11:51:16;;;;;;;49.45;30.75;;;0.00;89.30;;;;;;5027072;28;20099;-47
2023/01/25 11:53:53;;;;;;;47.45;27.55;;;0.00;89.60;;;;;;5011579;28;20414;-45
2023/01/25 11:56:31;;;;;;;57.30;33.30;;;0.00;89.90;;;;;;5025843;28;20691;-45
2023/01/25 11:59:30;;;;;;;53.58;31.52;;;0.00;90.00;;;;;;5010507;28;20068;-46
2023/01/25 12:02:27;;;;;;;59.53;32.63;;;0.00;90.10;;;;;;5026175;28;20128;-46
2023/01/25 12:05:35;;;;;;;60.08;35.00;;;0.00;90.10;;;;;;5012392;28;20037;-46
2023/01/25 12:08:19;;;;;;;50.75;31.10;;;0.00;90.30;;;;;;4957651;28;20051;-48
2023/01/25 12:11:13;;;;;;;60.25;34.53;;;0.00;90.10;;;;;;5007059;28;20037;-45
2023/01/25 12:14:16;;;;;;;53.83;29.92;;;0.00;89.90;;;;;;4993163;28;20751;-46
2023/01/25 12:17:02;;;;;;;53.90;31.77;;;0.00;89.80;;;;;;4977695;28;20070;-47
2023/01/25 12:19:39;;;;;;;56.70;33.70;;;0.00;90.20;;;;;;4988770;28;20420;-46
2023/01/25 12:22:30;;;;;;;56.50;33.33;;;0.00;89.90;;;;;;4991531;28;20432;-46
2023/01/25 12:25:19;;;;;;;51.03;30.63;;;0.00;90.00;;;;;;4988368;28;20053;-48
2023/01/25 12:28:07;;;;;;;52.55;30.65;;;0.00;90.00;;;;;;4986321;28;20112;-45
2023/01/25 12:30:41;;;;;;;54.70;31.55;;;0.00;89.90;;;;;;4990944;28;20034;-46
2023/01/25 12:33:42;;;;;;;49.90;29.50;;;0.00;89.70;;;;;;4976157;28;20121;-45
2023/01/25 12:36:14;;;;;;;51.58;28.30;;;0.00;89.60;;;;;;4987172;28;20054;-47
2023/01/25 12:39:17;;;;;;;51.30;30.58;;;-3276.70;89.60;;;;;;4983915;28;20061;-46
2023/01/25 12:42:06;;;;;;;49.40;28.90;;;-3276.70;89.80;;;;;;4980082;28;20082;-46
2023/01/25 12:44:54;;;;;;;61.15;32.20;;;-3276.60;89.70;;;;;;4989928;28;20057;-46
2023/01/25 12:47:42;;;;;;;51.28;30.30;;;-3276.70;89.70;;;;;;4985286;28;20029;-46
2023/01/25 12:50:34;;;;;;;52.03;32.13;;;-3276.70;90.00;;;;;;4986065;28;20353;-46
2023/01/25 12:53:09;;;;;;;60.53;33.95;;;-3276.70;89.90;;;;;;4987361;28;20034;-46
2023/01/25 12:55:36;;;;;;;53.95;30.83;;;0.00;90.00;;;;;;4979506;28;20053;-46